Huvudsida
METAR-TAF:

METAR-TAF

Flygplatser :

Karlstad Airport

Karlstad, Sverige

latitud: 59-26-41N, longitud: 013-20-15E, höjd: 107 m

Aktuellt väderrapport

Denna rapport gjordes för 15 minuter sedan, klockan 05:50 UTC
Vind 17 kt från väst/sydväst
Temperatur 12°C
Fuktighet 58%
Tryck 989 hPa
Sikt 10 km eller mer
Inga moln under 1 500 m eller inga cumulonimbus

METAR: ESOK 220550Z 24017KT CAVOK 12/04 Q0989

Tid: 08:05 (06:05 UTC)

Väderprognos

Denna rapport gjordes för 3 timmar och 35 minuter sedan, klockan 02:30 UTC
Prognos gäller från 22 kl. 03 UTC till 22 kl. 06 UTC
Vind 18 kt från sydväst i byarna ända upp till 30 kt
Sikt 10 km eller mer
Få moln på en höjd av 2500 ft
Brutna moln på en höjd av 5500 ft
Temporärt
från 22 kl. 03 UTC till 22 kl. 06 UTC
Brutna moln på en höjd av 2500 ft, Cumulonimbus.
regnskurar

TAF: ESOK 220230Z 2203/2206 22018G30KT 9999 FEW025 BKN055 TEMPO 2203/2206 SHRA BKN025CB

Aktuella väderrapporter och prognoser från 4000 flygplatser (METAR- och TAF-rapporter).

De tillgängliga stationerna syns som gula och röda prickar på kartan.

För musen över prickarna för att se namnen på stationerna.

Klicka sedan för att få väderrapporter och prognoser.

För att ändra kartan: Klicka på de gröna knapparna med ett svart kors på för att zooma in; den gröna knappen med ett streck på för att zooma ut; eller på de gröna pilarna för angränsande kartor.


METAR-TAF: